Time;durP1;ratioP1;P1;durP2;ratioP2;P2;SDS_P1;SDS_P2;PMS_P1;PMS_P2;Temp;Humidity;BMP_temperature;BMP_pressure;BME280_temperature;BME280_humidity;BME280_pressure;Samples;Min_cycle;Max_cycle;Signal;HPM_P1;HPM_P2
2022/12/27 00:01:15;;;;;;;;;;;6.30;99.90;;;;;;5066064;22;19925;-66
2022/12/27 00:03:42;;;;;;;;;;;6.20;99.90;;;;;;5044419;28;19925;-66
2022/12/27 00:06:11;;;;;;;;;;;6.10;99.90;;;;;;5052301;28;19979;-66
2022/12/27 00:08:39;;;;;;;;;;;6.00;99.90;;;;;;5020867;28;20302;-66
2022/12/27 00:11:07;;;;;;;;;;;6.10;99.90;;;;;;5012501;28;19925;-66
2022/12/27 00:13:35;;;;;;;;;;;6.10;99.90;;;;;;5031520;28;20489;-66
2022/12/27 00:16:05;;;;;;;;;;;6.20;99.90;;;;;;5032076;28;19959;-66
2022/12/27 00:18:33;;;;;;;;;;;6.30;99.90;;;;;;5032064;28;20365;-65
2022/12/27 00:21:02;;;;;;;;;;;6.20;99.90;;;;;;5031005;28;19925;-66
2022/12/27 00:23:31;;;;;;;;;;;6.00;99.90;;;;;;5032190;28;20382;-66
2022/12/27 00:26:00;;;;;;;;;;;6.00;99.90;;;;;;5012228;28;20032;-66
2022/12/27 00:28:29;;;;;;;;;;;6.00;99.90;;;;;;5011944;28;19925;-66
2022/12/27 00:30:57;;;;;;;;;;;6.00;99.90;;;;;;5011610;28;20028;-65
2022/12/27 00:33:27;;;;;;;;;;;6.10;99.90;;;;;;5012238;28;19925;-66
2022/12/27 00:35:55;;;;;;;;;;;6.10;99.90;;;;;;5030383;28;19925;-66
2022/12/27 00:38:22;;;;;;;;;;;6.10;99.90;;;;;;5031699;28;20019;-66
2022/12/27 00:40:50;;;;;;;;;;;6.20;99.90;;;;;;5030910;28;19931;-65
2022/12/27 00:43:18;;;;;;;;;;;6.10;99.90;;;;;;5031588;28;19932;-66
2022/12/27 00:45:46;;;;;;;;;;;6.00;99.90;;;;;;5031662;28;20040;-66
2022/12/27 00:48:14;;;;;;;;;;;6.00;99.90;;;;;;5030974;28;19979;-66
2022/12/27 00:50:43;;;;;;;;;;;5.90;99.90;;;;;;5031250;28;20024;-66
2022/12/27 00:53:11;;;;;;;;;;;5.90;99.90;;;;;;5031832;28;19925;-66
2022/12/27 00:55:42;;;;;;;;;;;5.80;99.90;;;;;;5032032;28;20351;-67
2022/12/27 00:58:10;;;;;;;;;;;5.80;99.90;;;;;;5031053;28;19948;-67
2022/12/27 01:00:38;;;;;;;;;;;5.70;99.90;;;;;;5030557;28;19925;-66
2022/12/27 01:03:05;;;;;;;;;;;5.70;99.90;;;;;;5031310;28;20011;-65
2022/12/27 01:05:35;;;;;;;;;;;5.70;99.90;;;;;;5031536;28;20351;-66
2022/12/27 01:08:05;;;;;;;;;;;5.70;99.90;;;;;;5031445;28;19965;-66
2022/12/27 01:10:33;;;;;;;;;;;5.60;99.90;;;;;;5030852;28;20016;-66
2022/12/27 01:13:01;;;;;;;;;;;5.60;99.90;;;;;;5031256;28;20283;-66
2022/12/27 01:15:28;;;;;;;;;;;5.60;99.90;;;;;;5030738;28;19925;-66
2022/12/27 01:17:56;;;;;;;;;;;5.60;99.90;;;;;;5031318;28;19926;-66
2022/12/27 01:20:24;;;;;;;;;;;5.70;99.90;;;;;;5030563;28;20024;-66
2022/12/27 01:22:53;;;;;;;;;;;5.60;99.90;;;;;;5031716;28;20454;-66
2022/12/27 01:25:22;;;;;;;;;;;5.60;99.90;;;;;;5035321;28;20023;-66
2022/12/27 01:27:50;;;;;;;;;;;5.60;99.90;;;;;;5035095;28;19929;-66
2022/12/27 01:30:17;;;;;;;;;;;5.60;99.90;;;;;;5033753;28;19979;-67
2022/12/27 01:32:45;;;;;;;;;;;5.60;99.90;;;;;;5035160;28;19936;-66
2022/12/27 01:35:13;;;;;;;;;;;5.60;99.90;;;;;;5035212;28;20313;-66
2022/12/27 01:37:40;;;;;;;;;;;5.50;99.90;;;;;;5034391;28;20012;-65
2022/12/27 01:40:09;;;;;;;;;;;5.50;99.90;;;;;;5034118;28;20012;-65
2022/12/27 01:42:52;;;;;;;;;;;5.50;99.90;;;;;;5034494;28;20019;-65
2022/12/27 01:45:21;;;;;;;;;;;5.40;99.90;;;;;;5034704;28;20012;-65
2022/12/27 01:47:50;;;;;;;;;;;5.30;99.90;;;;;;5034760;28;19952;-67
2022/12/27 01:50:22;;;;;;;;;;;5.20;99.90;;;;;;5034088;28;20410;-66
2022/12/27 01:52:53;;;;;;;;;;;5.20;99.90;;;;;;5034787;28;20027;-66
2022/12/27 01:55:24;;;;;;;;;;;5.20;99.90;;;;;;5034782;28;20305;-66
2022/12/27 01:57:55;;;;;;;;;;;5.10;99.90;;;;;;5034596;28;19929;-65
2022/12/27 02:00:22;;;;;;;;;;;5.20;99.90;;;;;;5033636;28;20325;-65
2022/12/27 02:02:50;;;;;;;;;;;5.30;99.90;;;;;;5034590;28;19924;-65
2022/12/27 02:05:20;;;;;;;;;;;5.30;99.90;;;;;;5034376;28;19929;-67
2022/12/27 02:07:53;;;;;;;;;;;5.40;99.90;;;;;;5034433;28;19931;-66
2022/12/27 02:10:21;;;;;;;;;;;5.40;99.90;;;;;;5033861;28;20305;-66
2022/12/27 02:12:48;;;;;;;;;;;5.40;99.90;;;;;;5034179;28;19925;-67
2022/12/27 02:15:18;;;;;;;;;;;5.30;99.90;;;;;;5034044;28;19967;-66
2022/12/27 02:17:45;;;;;;;;;;;5.30;99.90;;;;;;5034385;28;19925;-66
2022/12/27 02:20:15;;;;;;;;;;;5.50;99.90;;;;;;5033750;28;20021;-67
2022/12/27 02:25:51;;;;;;;;;;;5.50;99.90;;;;;;5034390;28;19926;-66
2022/12/27 02:28:25;;;;;;;;;;;5.50;99.90;;;;;;5033972;28;19929;-66
2022/12/27 02:30:57;;;;;;;;;;;5.50;99.90;;;;;;5033529;28;19932;-66
2022/12/27 02:33:27;;;;;;;;;;;5.60;99.90;;;;;;5034104;28;19932;-65
2022/12/27 02:35:57;;;;;;;;;;;5.70;99.90;;;;;;5033036;28;20297;-66
2022/12/27 02:38:29;;;;;;;;;;;5.60;99.90;;;;;;5033753;28;20369;-66
2022/12/27 02:55:10;;;;;;;;;;;5.80;99.90;;;;;;5033573;28;19979;-66
2022/12/27 02:57:40;;;;;;;;;;;5.90;99.90;;;;;;5033688;28;20019;-66
2022/12/27 03:03:22;;;;;;;;;;;5.90;99.90;;;;;;5033465;28;19925;-65
2022/12/27 03:08:54;;;;;;;;;;;5.90;99.90;;;;;;5033645;28;19932;-66
2022/12/27 03:17:00;;;;;;;;;;;5.90;99.90;;;;;;5027575;28;20162;-66
2022/12/27 03:33:22;;;;;;;;;;;5.70;99.90;;;;;;5032637;28;19925;-65
2022/12/27 03:38:42;;;;;;;;;;;5.70;99.90;;;;;;5032940;28;20023;-66
2022/12/27 03:44:03;;;;;;;;;;;5.60;99.90;;;;;;5032500;28;20024;-66
2022/12/27 03:46:33;;;;;;;;;;;5.60;99.90;;;;;;5032516;28;19956;-67
2022/12/27 03:49:07;;;;;;;;;;;5.70;99.90;;;;;;5032561;28;20290;-65
2022/12/27 03:51:37;;;;;;;;;;;5.70;99.90;;;;;;5031507;28;19925;-65
2022/12/27 03:54:08;;;;;;;;;;;5.60;99.90;;;;;;5032513;28;20345;-65
2022/12/27 03:56:36;;;;;;;;;;;5.70;99.90;;;;;;5032456;28;19925;-66
2022/12/27 03:59:04;;;;;;;;;;;5.70;99.90;;;;;;5033567;28;20448;-64
2022/12/27 04:01:32;;;;;;;;;;;5.60;99.90;;;;;;5031512;28;20024;-65
2022/12/27 04:04:00;;;;;;;;;;;5.60;99.90;;;;;;5032371;28;20329;-64
2022/12/27 04:06:28;;;;;;;;;;;5.60;99.90;;;;;;5032295;28;19931;-64
2022/12/27 04:36:32;;;;;;;;;;;5.30;99.90;;;;;;5031959;28;20406;-65
2022/12/27 04:38:59;;;;;;;;;;;5.40;99.90;;;;;;5031608;28;20305;-64
2022/12/27 04:55:17;;;;;;;;;;;5.50;99.90;;;;;;5031808;28;19947;-65
2022/12/27 04:57:46;;;;;;;;;;;5.40;99.90;;;;;;5031096;28;20020;-65
2022/12/27 05:03:01;;;;;;;;;;;5.40;99.90;;;;;;5031710;28;20350;-65
2022/12/27 05:05:29;;;;;;;;;;;5.40;99.90;;;;;;5031362;28;20112;-65
2022/12/27 05:16:14;;;;;;;;;;;5.60;99.90;;;;;;5029648;28;19925;-65
2022/12/27 05:18:42;;;;;;;;;;;5.60;99.90;;;;;;5031472;28;20394;-64
2022/12/27 05:21:10;;;;;;;;;;;5.70;99.90;;;;;;5029483;28;20414;-64
2022/12/27 05:26:31;;;;;;;;;;;5.80;99.90;;;;;;5031459;28;19925;-65
2022/12/27 05:29:01;;;;;;;;;;;5.90;99.90;;;;;;5031375;28;19928;-65
2022/12/27 05:31:29;;;;;;;;;;;5.80;99.90;;;;;;5030169;28;19968;-65
2022/12/27 05:33:57;;;;;;;;;;;5.80;99.90;;;;;;5031414;28;19925;-64
2022/12/27 05:36:25;;;;;;;;;;;5.80;99.90;;;;;;5031200;28;19925;-64
2022/12/27 05:38:53;;;;;;;;;;;5.80;99.90;;;;;;5031301;28;19929;-65
2022/12/27 05:41:21;;;;;;;;;;;5.80;99.90;;;;;;5033186;28;20008;-63
2022/12/27 05:43:49;;;;;;;;;;;5.80;99.90;;;;;;5047994;28;19925;-64
2022/12/27 05:46:19;;;;;;;;;;;5.70;99.90;;;;;;5043429;28;19929;-65
2022/12/27 05:48:47;;;;;;;;;;;5.70;99.90;;;;;;5049716;28;19925;-64
2022/12/27 05:51:16;;;;;;;;;;;5.70;99.90;;;;;;5045510;28;20484;-63
2022/12/27 05:53:44;;;;;;;;;;;5.70;99.90;;;;;;5019234;28;20377;-64
2022/12/27 05:56:14;;;;;;;;;;;5.60;99.90;;;;;;5024858;28;19947;-64
2022/12/27 05:58:42;;;;;;;;;;;5.60;99.90;;;;;;5020051;28;19957;-64
2022/12/27 06:01:11;;;;;;;;;;;5.60;99.90;;;;;;5029701;28;19929;-63
2022/12/27 06:03:40;;;;;;;;;;;5.60;99.90;;;;;;5030608;28;19925;-64
2022/12/27 06:06:08;;;;;;;;;;;5.60;99.90;;;;;;5074729;22;19931;-61
2022/12/27 06:08:36;;;;;;;;;;;5.60;99.90;;;;;;5063069;28;19928;-61
2022/12/27 06:11:05;;;;;;;;;;;5.60;99.90;;;;;;5066840;28;19975;-61
2022/12/27 06:13:33;;;;;;;;;;;5.70;99.90;;;;;;5056072;28;19924;-61
2022/12/27 06:16:02;;;;;;;;;;;5.70;99.90;;;;;;5059486;28;20539;-61
2022/12/27 06:18:31;;;;;;;;;;;5.70;99.90;;;;;;5054157;28;20283;-61
2022/12/27 06:21:04;;;;;;;;;;;5.80;99.90;;;;;;5048638;28;19931;-61
2022/12/27 06:23:32;;;;;;;;;;;5.80;99.90;;;;;;5031606;28;19926;-61
2022/12/27 06:26:04;;;;;;;;;;;5.90;99.90;;;;;;5014345;28;19961;-60
2022/12/27 06:28:31;;;;;;;;;;;5.90;99.90;;;;;;5029664;28;19991;-60
2022/12/27 06:30:59;;;;;;;;;;;5.90;99.90;;;;;;5032963;28;19936;-61
2022/12/27 06:33:27;;;;;;;;;;;5.80;99.90;;;;;;5034145;28;19969;-61
2022/12/27 06:35:55;;;;;;;;;;;5.70;99.90;;;;;;5033905;28;19939;-61
2022/12/27 06:38:24;;;;;;;;;;;5.40;99.90;;;;;;5033516;28;20016;-61
2022/12/27 06:40:51;;;;;;;;;;;5.30;99.90;;;;;;5032847;28;19931;-61
2022/12/27 06:43:19;;;;;;;;;;;5.10;99.90;;;;;;5035026;28;19967;-61
2022/12/27 06:45:54;;;;;;;;;;;5.10;99.90;;;;;;5053640;28;19931;-61
2022/12/27 06:48:22;;;;;;;;;;;5.10;99.90;;;;;;5053316;28;19925;-61
2022/12/27 06:50:50;;;;;;;;;;;5.20;99.90;;;;;;5033851;28;19925;-61
2022/12/27 06:53:18;;;;;;;;;;;5.00;99.90;;;;;;5033733;28;20029;-62
2022/12/27 06:55:47;;;;;;;;;;;4.90;99.90;;;;;;5029584;28;20529;-62
2022/12/27 06:58:15;;;;;;;;;;;4.80;99.90;;;;;;5033484;28;20036;-61
2022/12/27 07:00:42;;;;;;;;;;;4.70;99.90;;;;;;5012479;28;19968;-61
2022/12/27 07:03:10;;;;;;;;;;;4.60;99.90;;;;;;5013904;28;19925;-61
2022/12/27 07:05:38;;;;;;;;;;;4.70;99.90;;;;;;5013195;28;19925;-61
2022/12/27 07:08:06;;;;;;;;;;;4.80;99.90;;;;;;5023797;28;19932;-61
2022/12/27 07:10:33;;;;;;;;;;;4.70;99.90;;;;;;5032409;28;19925;-61
2022/12/27 07:13:02;;;;;;;;;;;4.80;99.90;;;;;;5033070;28;20394;-61
2022/12/27 07:15:30;;;;;;;;;;;4.80;99.90;;;;;;5049291;28;19971;-61
2022/12/27 07:17:59;;;;;;;;;;;4.90;99.90;;;;;;5053106;28;20378;-61
2022/12/27 07:20:26;;;;;;;;;;;4.90;99.90;;;;;;5051931;28;20032;-62
2022/12/27 07:22:57;;;;;;;;;;;4.90;99.90;;;;;;5045004;28;19972;-61
2022/12/27 07:25:25;;;;;;;;;;;5.00;99.90;;;;;;5032788;28;19929;-61
2022/12/27 07:27:53;;;;;;;;;;;5.00;99.90;;;;;;5033031;28;20429;-63
2022/12/27 07:30:22;;;;;;;;;;;5.00;99.90;;;;;;5026974;28;20362;-62
2022/12/27 07:32:49;;;;;;;;;;;5.00;99.90;;;;;;5033053;28;20012;-62
2022/12/27 07:35:17;;;;;;;;;;;4.80;99.90;;;;;;5027267;28;20024;-62
2022/12/27 07:37:45;;;;;;;;;;;4.50;99.90;;;;;;5012966;28;19925;-62
2022/12/27 07:40:12;;;;;;;;;;;4.30;99.90;;;;;;5012290;28;20047;-63
2022/12/27 07:42:40;;;;;;;;;;;4.10;99.90;;;;;;5012670;28;19929;-62
2022/12/27 07:45:08;;;;;;;;;;;3.90;99.90;;;;;;5037626;28;19932;-63
2022/12/27 07:47:37;;;;;;;;;;;3.80;99.90;;;;;;5034243;28;19964;-63
2022/12/27 07:50:05;;;;;;;;;;;3.60;99.90;;;;;;5031490;28;19931;-62
2022/12/27 07:52:33;;;;;;;;;;;3.50;99.90;;;;;;5032414;28;19928;-62
2022/12/27 07:55:00;;;;;;;;;;;3.50;99.90;;;;;;5030772;28;19925;-65
2022/12/27 07:57:28;;;;;;;;;;;3.40;99.90;;;;;;5015722;28;20012;-64
2022/12/27 07:59:56;;;;;;;;;;;3.30;99.90;;;;;;5031329;28;19925;-63
2022/12/27 08:02:24;;;;;;;;;;;3.20;99.90;;;;;;5031836;28;20023;-63
2022/12/27 08:04:53;;;;;;;;;;;3.10;99.90;;;;;;5031793;28;20305;-63
2022/12/27 08:07:21;;;;;;;;;;;3.30;99.90;;;;;;5032426;28;19925;-62
2022/12/27 08:09:48;;;;;;;;;;;3.40;99.90;;;;;;5031536;28;20008;-61
2022/12/27 08:12:16;;;;;;;;;;;3.60;99.90;;;;;;5029705;28;20072;-62
2022/12/27 08:14:44;;;;;;;;;;;3.70;99.90;;;;;;5044457;28;19929;-62
2022/12/27 08:17:15;;;;;;;;;;;4.00;99.90;;;;;;5052246;28;20394;-63
2022/12/27 08:19:43;;;;;;;;;;;4.20;99.90;;;;;;5051668;28;20012;-63
2022/12/27 08:22:12;;;;;;;;;;;4.50;99.90;;;;;;5052137;28;19929;-63
2022/12/27 08:24:40;;;;;;;;;;;4.70;99.90;;;;;;5045707;28;20322;-63
2022/12/27 08:27:09;;;;;;;;;;;4.90;99.90;;;;;;5031429;28;19925;-62
2022/12/27 08:29:36;;;;;;;;;;;5.10;99.90;;;;;;5031407;28;20381;-63
2022/12/27 08:32:04;;;;;;;;;;;5.40;99.90;;;;;;5031929;28;19932;-63
2022/12/27 08:34:32;;;;;;;;;;;5.50;99.90;;;;;;5031197;28;19929;-63
2022/12/27 08:37:00;;;;;;;;;;;5.90;99.90;;;;;;5031697;28;20024;-63
2022/12/27 08:39:29;;;;;;;;;;;6.20;99.90;;;;;;5031571;28;19925;-63
2022/12/27 08:41:57;;;;;;;;;;;6.40;99.90;;;;;;5031731;28;19931;-63
2022/12/27 08:44:26;;;;;;;;;;;6.70;99.90;;;;;;5041780;28;19925;-63
2022/12/27 08:46:53;;;;;;;;;;;7.10;99.90;;;;;;5051301;28;19925;-62
2022/12/27 08:49:21;;;;;;;;;;;7.30;99.90;;;;;;5051596;28;19975;-63
2022/12/27 08:51:49;;;;;;;;;;;7.40;99.90;;;;;;5051219;28;20361;-63
2022/12/27 08:54:17;;;;;;;;;;;7.60;99.90;;;;;;5045342;28;19932;-63
2022/12/27 08:56:46;;;;;;;;;;;7.80;99.90;;;;;;5030772;28;19947;-63
2022/12/27 08:59:14;;;;;;;;;;;8.00;99.90;;;;;;5031505;28;20008;-63
2022/12/27 09:01:41;;;;;;;;;;;8.00;99.90;;;;;;5031128;28;20337;-63
2022/12/27 09:04:09;;;;;;;;;;;8.30;99.90;;;;;;5031357;28;19929;-63
2022/12/27 09:06:38;;;;;;;;;;;8.40;99.90;;;;;;5031117;28;20026;-63
2022/12/27 09:09:06;;;;;;;;;;;8.70;99.90;;;;;;5031673;28;19931;-63
2022/12/27 09:11:34;;;;;;;;;;;8.80;99.90;;;;;;5030979;28;19929;-63
2022/12/27 09:14:04;;;;;;;;;;;9.10;99.90;;;;;;5038071;28;19924;-63
2022/12/27 09:16:33;;;;;;;;;;;9.10;99.90;;;;;;5040350;28;19973;-63
2022/12/27 09:19:01;;;;;;;;;;;9.20;99.90;;;;;;5031522;28;19975;-63
2022/12/27 09:21:30;;;;;;;;;;;9.30;99.90;;;;;;5030755;28;19956;-63
2022/12/27 09:23:58;;;;;;;;;;;9.40;99.90;;;;;;5031627;28;19949;-62
2022/12/27 09:26:27;;;;;;;;;;;9.50;99.90;;;;;;5031241;28;20343;-63
2022/12/27 09:28:55;;;;;;;;;;;9.40;99.90;;;;;;5030904;28;19976;-62
2022/12/27 09:31:25;;;;;;;;;;;9.30;99.90;;;;;;5030400;28;20133;-63
2022/12/27 09:33:53;;;;;;;;;;;9.30;99.90;;;;;;5031093;28;20460;-63
2022/12/27 09:36:22;;;;;;;;;;;9.20;99.90;;;;;;5031068;28;19925;-63
2022/12/27 09:38:53;;;;;;;;;;;9.10;99.90;;;;;;5031240;28;19931;-62
2022/12/27 09:41:22;;;;;;;;;;;9.10;99.90;;;;;;5030493;28;19979;-62
2022/12/27 09:44:12;;;;;;;;;;;9.10;99.90;;;;;;5039777;28;19928;-64
2022/12/27 09:46:43;;;;;;;;;;;9.10;99.90;;;;;;5040748;28;20001;-61
2022/12/27 09:49:13;;;;;;;;;;;8.80;99.90;;;;;;5055293;28;20313;-65
2022/12/27 09:51:46;;;;;;;;;;;8.60;99.90;;;;;;5053831;28;19924;-64
2022/12/27 09:54:15;;;;;;;;;;;8.50;99.90;;;;;;5054501;28;20014;-62
2022/12/27 09:56:43;;;;;;;;;;;8.50;99.90;;;;;;5054590;28;19925;-62
2022/12/27 09:59:32;;;;;;;;;;;8.50;99.90;;;;;;5054061;28;19925;-62
2022/12/27 10:02:01;;;;;;;;;;;8.50;99.90;;;;;;5041668;28;19958;-62
2022/12/27 10:04:32;;;;;;;;;;;8.90;99.90;;;;;;5034433;28;19925;-64
2022/12/27 10:07:25;;;;;;;;;;;8.80;99.90;;;;;;5034778;28;19932;-64
2022/12/27 10:09:57;;;;;;;;;;;8.70;99.90;;;;;;5033982;28;19925;-63
2022/12/27 10:12:32;;;;;;;;;;;8.70;99.90;;;;;;5034071;28;19929;-63
2022/12/27 10:15:07;;;;;;;;;;;8.40;99.90;;;;;;5043081;28;20008;-63
2022/12/27 10:17:42;;;;;;;;;;;8.40;99.90;;;;;;5053678;28;19928;-64
2022/12/27 10:20:18;;;;;;;;;;;8.30;99.90;;;;;;5053410;28;19971;-63
2022/12/27 10:22:48;;;;;;;;;;;8.20;99.90;;;;;;5053556;28;19959;-63
2022/12/27 10:25:18;;;;;;;;;;;7.90;99.90;;;;;;5053946;28;19932;-61
2022/12/27 10:27:46;;;;;;;;;;;7.90;99.90;;;;;;5054079;28;19960;-63
2022/12/27 10:30:15;;;;;;;;;;;8.10;99.90;;;;;;5051861;28;20019;-63
2022/12/27 10:32:44;;;;;;;;;;;8.20;99.90;;;;;;5033589;28;19929;-63
2022/12/27 10:35:13;;;;;;;;;;;7.90;99.90;;;;;;5034047;28;19925;-63
2022/12/27 10:37:41;;;;;;;;;;;7.80;99.90;;;;;;5033985;28;19945;-63
2022/12/27 10:40:11;;;;;;;;;;;8.20;99.90;;;;;;5033190;28;19931;-64
2022/12/27 10:42:40;;;;;;;;;;;8.60;99.90;;;;;;5033739;28;20012;-62
2022/12/27 10:45:28;;;;;;;;;;;8.90;99.90;;;;;;5047333;28;19928;-63
2022/12/27 10:47:58;;;;;;;;;;;9.10;99.90;;;;;;5013907;28;19926;-64
2022/12/27 10:50:27;;;;;;;;;;;9.00;99.90;;;;;;5013380;28;19925;-62
2022/12/27 10:52:55;;;;;;;;;;;9.00;99.90;;;;;;5013947;28;19929;-63
2022/12/27 10:55:33;;;;;;;;;;;8.90;99.90;;;;;;5013585;28;19932;-63
2022/12/27 10:58:15;;;;;;;;;;;8.90;99.90;;;;;;5013829;28;20028;-64
2022/12/27 11:00:52;;;;;;;;;;;9.10;99.90;;;;;;5018423;28;19925;-63
2022/12/27 11:03:21;;;;;;;;;;;9.40;99.90;;;;;;5033486;28;19925;-63
2022/12/27 11:05:58;;;;;;;;;;;9.40;99.90;;;;;;5033105;28;19929;-63
2022/12/27 11:08:26;;;;;;;;;;;9.00;99.90;;;;;;5033520;28;20156;-63
2022/12/27 11:11:10;;;;;;;;;;;8.50;99.90;;;;;;5032571;28;19968;-63
2022/12/27 11:13:38;;;;;;;;;;;8.50;99.90;;;;;;5036730;28;20389;-63
2022/12/27 11:16:13;;;;;;;;;;;8.50;99.90;;;;;;5032877;28;20023;-63
2022/12/27 11:18:44;;;;;;;;;;;8.50;99.90;;;;;;5031946;28;19925;-64
2022/12/27 11:21:12;;;;;;;;;;;8.80;99.90;;;;;;5032182;28;20370;-63
2022/12/27 11:23:55;;;;;;;;;;;9.30;99.90;;;;;;5033243;28;19963;-63
2022/12/27 11:26:24;;;;;;;;;;;9.80;99.90;;;;;;5033123;28;20012;-64
2022/12/27 11:28:53;;;;;;;;;;;9.50;99.90;;;;;;5032928;28;20015;-64
2022/12/27 11:31:31;;;;;;;;;;;8.50;99.90;;;;;;5031903;28;19957;-63
2022/12/27 11:34:03;;;;;;;;;;;8.10;99.90;;;;;;5032848;28;19929;-62
2022/12/27 11:36:32;;;;;;;;;;;7.60;99.90;;;;;;5032910;28;19925;-63
2022/12/27 11:39:00;;;;;;;;;;;7.90;99.90;;;;;;5032743;28;20449;-63
2022/12/27 11:41:31;;;;;;;;;;;8.20;99.90;;;;;;5032192;28;19932;-63
2022/12/27 11:44:03;;;;;;;;;;;8.10;99.90;;;;;;5032430;28;20346;-63
2022/12/27 11:46:39;;;;;;;;;;;7.90;99.90;;;;;;5032492;28;20297;-63
2022/12/27 11:49:11;;;;;;;;;;;7.50;99.90;;;;;;5032443;28;20361;-63
2022/12/27 11:51:49;;;;;;;;;;;7.10;99.90;;;;;;5032289;28;19931;-63
2022/12/27 11:54:28;;;;;;;;;;;6.90;99.90;;;;;;5032680;28;19929;-63
2022/12/27 11:57:01;;;;;;;;;;;7.00;99.90;;;;;;5032885;28;20020;-63
2022/12/27 11:59:35;;;;;;;;;;;7.40;99.90;;;;;;5031777;28;20329;-62
2022/12/27 12:02:21;;;;;;;;;;;7.60;99.90;;;;;;5032546;28;19925;-63
2022/12/27 12:05:04;;;;;;;;;;;7.70;99.90;;;;;;5057653;22;19925;-69
2022/12/27 12:07:44;;;;;;;;;;;8.10;99.90;;;;;;5031143;28;20023;-70
2022/12/27 12:10:21;;;;;;;;;;;8.60;99.90;;;;;;5031717;28;19932;-69
2022/12/27 12:13:02;;;;;;;;;;;8.90;99.90;;;;;;5032409;28;19925;-70
2022/12/27 12:15:56;;;;;;;;;;;8.40;99.90;;;;;;5018540;28;19934;-69
2022/12/27 12:18:34;;;;;;;;;;;8.00;99.90;;;;;;5012070;28;20089;-69
2022/12/27 12:21:12;;;;;;;;;;;7.60;99.90;;;;;;5010144;28;20050;-70
2022/12/27 12:23:49;;;;;;;;;;;7.30;99.90;;;;;;5012458;28;20314;-70
2022/12/27 12:26:19;;;;;;;;;;;7.20;99.90;;;;;;5012215;28;19933;-69
2022/12/27 12:29:15;;;;;;;;;;;6.90;99.90;;;;;;5011347;28;20474;-69
2022/12/27 12:32:02;;;;;;;;;;;6.70;99.90;;;;;;4998351;28;20059;-70
2022/12/27 12:34:42;;;;;;;;;;;6.70;99.90;;;;;;5012249;28;19932;-69
2022/12/27 12:37:17;;;;;;;;;;;6.60;99.90;;;;;;5012271;28;20016;-69
2022/12/27 12:40:02;;;;;;;;;;;6.50;99.90;;;;;;5009767;28;20341;-69
2022/12/27 12:42:34;;;;;;;;;;;6.50;99.90;;;;;;5023992;28;19972;-69
2022/12/27 12:45:20;;;;;;;;;;;6.60;99.90;;;;;;5022112;28;20036;-69
2022/12/27 12:48:01;;;;;;;;;;;6.70;99.90;;;;;;5011866;28;20408;-70
2022/12/27 12:50:35;;;;;;;;;;;6.70;99.90;;;;;;5011318;28;19931;-70
2022/12/27 12:53:13;;;;;;;;;;;6.60;99.90;;;;;;5011287;28;19925;-69
2022/12/27 12:55:50;;;;;;;;;;;6.50;99.90;;;;;;5012043;28;19925;-70
2022/12/27 12:58:22;;;;;;;;;;;6.50;99.90;;;;;;5011854;28;19991;-69
2022/12/27 13:00:56;;;;;;;;;;;6.50;99.90;;;;;;4992182;28;19932;-70
2022/12/27 13:03:54;;;;;;;;;;;6.50;99.90;;;;;;4992189;28;20302;-70
2022/12/27 13:06:32;;;;;;;;;;;6.60;99.90;;;;;;4992091;28;20429;-69
2022/12/27 13:09:04;;;;;;;;;;;6.60;99.90;;;;;;4991975;28;19925;-70
2022/12/27 13:11:40;;;;;;;;;;;6.60;99.90;;;;;;4991096;28;19926;-69
2022/12/27 13:14:27;;;;;;;;;;;6.60;99.90;;;;;;4992717;28;19932;-69
2022/12/27 13:16:59;;;;;;;;;;;6.60;99.90;;;;;;5005783;28;19925;-70
2022/12/27 13:19:34;;;;;;;;;;;6.60;99.90;;;;;;5012626;28;19932;-69
2022/12/27 13:22:04;;;;;;;;;;;6.60;99.90;;;;;;5015583;28;19980;-70
2022/12/27 13:24:38;;;;;;;;;;;6.50;99.90;;;;;;5015676;28;20429;-70
2022/12/27 13:27:12;;;;;;;;;;;6.50;99.90;;;;;;5014332;28;19925;-69
2022/12/27 13:29:50;;;;;;;;;;;6.50;99.90;;;;;;5014350;28;20285;-69
2022/12/27 13:32:23;;;;;;;;;;;6.70;99.90;;;;;;5015907;28;19976;-71
2022/12/27 13:34:56;;;;;;;;;;;6.70;99.90;;;;;;5015588;28;20016;-71
2022/12/27 13:37:29;;;;;;;;;;;6.80;99.90;;;;;;5015399;28;19925;-71
2022/12/27 13:40:15;;;;;;;;;;;6.90;99.90;;;;;;5014639;28;19929;-71
2022/12/27 13:42:50;;;;;;;;;;;7.00;99.90;;;;;;5015212;28;19961;-71
2022/12/27 13:45:37;;;;;;;;;;;7.10;99.90;;;;;;5006417;28;19926;-71
2022/12/27 13:48:13;;;;;;;;;;;7.00;99.90;;;;;;5010938;28;19926;-71
2022/12/27 13:50:48;;;;;;;;;;;6.90;99.90;;;;;;5014392;28;19980;-71
2022/12/27 13:53:24;;;;;;;;;;;6.80;99.90;;;;;;5015025;28;20020;-71
2022/12/27 13:55:55;;;;;;;;;;;6.70;99.90;;;;;;5014779;28;20407;-71
2022/12/27 13:58:44;;;;;;;;;;;6.60;99.90;;;;;;5014861;28;19929;-70
2022/12/27 14:01:30;;;;;;;;;;;6.60;99.90;;;;;;5012529;28;19929;-71
2022/12/27 14:04:19;;;;;;;;;;;6.50;99.90;;;;;;5015184;28;19926;-71
2022/12/27 14:06:56;;;;;;;;;;;6.50;99.90;;;;;;5014626;28;19933;-71
2022/12/27 14:09:39;;;;;;;;;;;6.50;99.90;;;;;;5014698;28;19977;-71
2022/12/27 14:12:25;;;;;;;;;;;6.60;99.90;;;;;;5006065;28;20413;-71
2022/12/27 14:14:57;;;;;;;;;;;6.60;99.90;;;;;;5002061;28;20044;-70
2022/12/27 14:17:29;;;;;;;;;;;6.60;99.90;;;;;;5012965;28;19925;-70
2022/12/27 14:20:12;;;;;;;;;;;6.60;99.90;;;;;;5013851;28;19930;-70
2022/12/27 14:22:53;;;;;;;;;;;6.60;99.90;;;;;;5002467;28;19952;-71
2022/12/27 14:25:39;;;;;;;;;;;6.50;99.90;;;;;;5013231;28;20194;-71
2022/12/27 14:28:26;;;;;;;;;;;6.50;99.90;;;;;;5014472;28;20397;-71
2022/12/27 14:31:11;;;;;;;;;;;6.40;99.90;;;;;;4997459;28;19926;-71
2022/12/27 14:33:57;;;;;;;;;;;6.40;99.90;;;;;;4994849;28;19925;-71
2022/12/27 14:36:57;;;;;;;;;;;6.40;99.90;;;;;;4994783;28;20013;-71
2022/12/27 14:39:43;;;;;;;;;;;6.30;99.90;;;;;;4994601;28;19926;-71
2022/12/27 14:42:19;;;;;;;;;;;6.20;99.90;;;;;;4991431;28;19926;-71
2022/12/27 14:45:05;;;;;;;;;;;6.20;99.90;;;;;;5008504;28;20048;-71
2022/12/27 14:47:59;;;;;;;;;;;6.20;99.90;;;;;;5013392;28;20441;-71
2022/12/27 14:50:45;;;;;;;;;;;6.10;99.90;;;;;;5013274;28;19925;-71
2022/12/27 14:53:37;;;;;;;;;;;6.10;99.90;;;;;;5014469;28;20359;-71
2022/12/27 14:56:15;;;;;;;;;;;6.10;99.90;;;;;;5014183;28;20296;-71
2022/12/27 14:58:54;;;;;;;;;;;6.10;99.90;;;;;;4994208;28;20145;-71
2022/12/27 15:01:27;;;;;;;;;;;6.10;99.90;;;;;;4993351;28;19976;-72
2022/12/27 15:04:07;;;;;;;;;;;6.10;99.90;;;;;;4994213;28;20376;-71
2022/12/27 15:07:04;;;;;;;;;;;6.10;99.90;;;;;;4994007;28;20017;-71
2022/12/27 15:09:37;;;;;;;;;;;6.10;99.90;;;;;;4993690;28;20020;-70
2022/12/27 15:12:17;;;;;;;;;;;6.10;99.90;;;;;;5012393;28;20398;-71
2022/12/27 15:15:00;;;;;;;;;;;6.10;99.90;;;;;;5010378;28;20013;-71
2022/12/27 15:17:33;;;;;;;;;;;6.10;99.90;;;;;;5012011;28;19925;-71
2022/12/27 15:20:12;;;;;;;;;;;6.20;99.90;;;;;;5012524;28;19925;-71
2022/12/27 15:22:45;;;;;;;;;;;6.10;99.90;;;;;;5013331;28;20052;-72
2022/12/27 15:25:19;;;;;;;;;;;6.10;99.90;;;;;;5012719;28;19932;-71
2022/12/27 15:27:51;;;;;;;;;;;6.10;99.90;;;;;;5013511;28;19951;-71
2022/12/27 15:30:22;;;;;;;;;;;6.10;99.90;;;;;;5012114;28;19925;-71
2022/12/27 15:32:54;;;;;;;;;;;6.10;99.90;;;;;;5013178;28;20024;-71
2022/12/27 15:35:34;;;;;;;;;;;6.00;99.90;;;;;;5007342;28;19968;-71
2022/12/27 15:38:06;;;;;;;;;;;6.00;99.90;;;;;;5001836;28;19925;-71
2022/12/27 15:40:42;;;;;;;;;;;6.00;99.90;;;;;;5012295;28;19932;-71
2022/12/27 15:43:22;;;;;;;;;;;6.00;99.90;;;;;;5013104;28;19929;-71
2022/12/27 15:45:58;;;;;;;;;;;5.90;99.90;;;;;;5008185;28;20020;-71
2022/12/27 15:48:48;;;;;;;;;;;5.90;99.90;;;;;;5012600;28;21359;-71
2022/12/27 15:51:27;;;;;;;;;;;5.90;99.90;;;;;;5012625;28;19929;-71
2022/12/27 15:54:10;;;;;;;;;;;5.80;99.90;;;;;;5012886;28;20144;-71
2022/12/27 15:56:52;;;;;;;;;;;5.90;99.90;;;;;;5010842;28;19925;-71
2022/12/27 15:59:31;;;;;;;;;;;5.90;99.90;;;;;;5005762;28;20406;-71
2022/12/27 16:02:20;;;;;;;;;;;5.90;99.90;;;;;;4993025;28;19930;-70
2022/12/27 16:04:50;;;;;;;;;;;5.90;99.90;;;;;;4992835;28;20391;-71
2022/12/27 16:07:40;;;;;;;;;;;5.80;99.90;;;;;;4993200;28;19933;-71
2022/12/27 16:10:26;;;;;;;;;;;5.80;99.90;;;;;;4992268;28;20273;-71
2022/12/27 16:12:55;;;;;;;;;;;5.70;99.90;;;;;;4999499;28;19941;-71
2022/12/27 16:15:36;;;;;;;;;;;5.60;99.90;;;;;;5005562;28;20425;-71
2022/12/27 16:18:04;;;;;;;;;;;5.70;99.90;;;;;;5012551;28;19936;-71
2022/12/27 16:20:32;;;;;;;;;;;5.60;99.90;;;;;;5010873;28;19931;-71
2022/12/27 16:23:02;;;;;;;;;;;5.60;99.90;;;;;;5012530;28;20413;-71
2022/12/27 16:25:32;;;;;;;;;;;5.60;99.90;;;;;;5003525;28;20019;-71
2022/12/27 16:28:02;;;;;;;;;;;5.50;99.90;;;;;;5012471;28;19930;-71
2022/12/27 16:30:37;;;;;;;;;;;5.40;99.90;;;;;;5011620;28;20024;-70
2022/12/27 16:33:05;;;;;;;;;;;5.40;99.90;;;;;;5000000;28;20021;-71
2022/12/27 16:35:33;;;;;;;;;;;5.40;99.90;;;;;;4992781;28;20387;-70
2022/12/27 16:38:03;;;;;;;;;;;5.20;99.90;;;;;;4992488;28;20403;-70
2022/12/27 16:40:40;;;;;;;;;;;5.20;99.90;;;;;;4996791;28;20386;-71
2022/12/27 16:43:28;;;;;;;;;;;5.20;99.90;;;;;;4994334;28;20017;-71
2022/12/27 16:46:00;;;;;;;;;;;5.20;99.90;;;;;;4997690;28;19926;-71